Halesite, New York
Current Conditions -  °F | °C
As of 4:53 AM on Monday 20 Oct 2014 (Local Time) from KFRG Reporting Station
Clear Clear  
Wind Chill: 39°   Ceiling: Unl
Heat Index: 39°   Visibility: 10mi
Dew Point: 30°   Wind: 3mph
Humidity: 70%   Direction: 260°W
Pressure: 30.09"   Gusts: NA
Location:  40.8966°N, 73.4362°W
Report Text: KFRG 200853Z AUTO 26003KT 10SM CLR 04/M01 A3009 RMK AO2 SLP191 T00391011 53008
Loading
Personal Weather Stations






























Interactive Weather Map New forecast layout! Learn more

10-Day Weather Forecast

Advertisements
Track Severe Weather on mobile